ěÝzenÝ letovÚho provozu ╚eskÚ republiky
Letiste: LKNA Aktualizace: 27.02.2024 13:29:38  UTC
 METAR LKNA 27.02. 13:30 ...
METAR LKNA 271330Z 12011KT 9999 SCT022 BKN170 12/08 Q1011 NOSIG RMK BLU BLU=
 TAF LKNA 27.02. 11:00 ...
TAF LKNA 271100Z 2712/2812 14010KT CAVOK      TEMPO 2712/2810 9999 SCT030      PROB40 TEMPO 2722/2809 4000 BR BKN007      PROB30 TEMPO 2800/2806 2000 BR BKN003      BECMG 2808/2810 31006KT=